• Join FlightAware (Why Join?)
  • Login
  • US Flag 
03:43AM EDT


 

Airport Tracker/Info


-or-


 

Live Flight TrackerFlight Track Log ✈ N609C ✈ 14-Jul-2014 ✈ KASX - KRYV

Flight Track Log - Related Links

Times and Time Zones

All times are in EDT time to prevent confusion due to time zone crossing. See the N609C flight status page for this flight to view local times or setup timezone preferences in your user account.

Time Position Orientation Groundspeed Altitude Reporting Facility
EDT Latitude Longitude Course Direction KTS MPH feet Rate Location/Type
08:34PM 46.4294 -90.8358 154° Southeast 166 191 4,300  Level Minneapolis Center
08:35PM 46.3908 -90.8069 153° Southeast 159 183 4,900 540 Climbing Minneapolis Center
08:36PM 46.3508 -90.7772 153° Southeast 159 183 5,500 600 Climbing Minneapolis Center
08:37PM 46.3058 -90.7511 158° South 161 185 6,200 540 Climbing Minneapolis Center
08:38PM 46.2675 -90.7233 153° Southeast 163 188 6,700 420 Climbing Minneapolis Center
08:39PM 46.2344 -90.7024 154° Southeast  Level Estimated
08:39PM 46.2258 -90.6953 155° Southeast 162 186 7,100  Level Minneapolis Center
08:40PM 46.1717 -90.6581 155° Southeast 169 194 6,900 -120 Descending Minneapolis Center
08:41PM 46.1225 -90.6253 155° Southeast 181 208 6,900  Level Minneapolis Center
08:42PM 46.0756 -90.5922 154° Southeast 182 209 6,900  Level Minneapolis Center
08:43PM 46.0256 -90.5600 156° South 190 219 6,900  Level Minneapolis Center
08:44PM 45.9778 -90.5272 155° Southeast 190 219 6,900  Level Minneapolis Center
08:45PM 45.9300 -90.4944 154° Southeast 191 220 6,900  Level Minneapolis Center
08:46PM 45.8731 -90.4542 154° Southeast 191 220 6,900  Level Minneapolis Center
08:47PM 45.8261 -90.4233 155° Southeast 191 220 6,900  Level Minneapolis Center
08:48PM 45.7786 -90.3922 155° Southeast 191 220 6,900  Level Minneapolis Center
08:49PM 45.7339 -90.3622 155° Southeast 188 216 6,900  Level Minneapolis Center
08:50PM 45.6875 -90.3300 154° Southeast 186 214 6,900  Level Minneapolis Center
08:51PM 45.6328 -90.2944 156° South 184 212 6,900  Level Minneapolis Center
08:52PM 45.5853 -90.2644 156° South 184 212 6,900  Level Minneapolis Center
08:53PM 45.5383 -90.2319 154° Southeast 184 212 6,900  Level Minneapolis Center
08:54PM 45.4917 -90.2003 155° Southeast 184 212 6,900  Level Minneapolis Center
08:55PM 45.4450 -90.1694 155° Southeast 184 212 6,900  Level Minneapolis Center
08:56PM 45.3994 -90.1381 154° Southeast 184 212 6,900  Level Minneapolis Center
08:57PM 45.3436 -90.1033 156° South 184 212 6,900  Level Minneapolis Center
08:58PM 45.2961 -90.0717 155° Southeast 184 212 6,900  Level Minneapolis Center
08:59PM 45.2500 -90.0408 155° Southeast 184 212 6,900  Level Minneapolis Center
09:00PM 45.2031 -90.0114 156° South 184 212 7,000  Climbing Minneapolis Center
09:01PM 45.1514 -89.9756 154° Southeast 184 212 7,000  Level Minneapolis Center
09:03PM 45.0819 -89.9306 155° Southeast 242 278 7,000  Level Minneapolis Center
09:04PM 45.0358 -89.9017 156° South 178 205 7,000  Level Minneapolis Center
09:05PM 44.9908 -89.8728 156° South 182 209 7,000  Level Minneapolis Center
09:06PM 44.9419 -89.8403 155° Southeast 182 209 7,000  Level Minneapolis Center
09:07PM 44.8933 -89.8089 155° Southeast 183 211 7,000  Level Minneapolis Center
09:08PM 44.8458 -89.7781 155° Southeast 183 211 7,000  Level Minneapolis Center
09:09PM 44.7975 -89.7478 156° South 182 209 7,000  Level Minneapolis Center
09:10PM 44.7492 -89.7139 154° Southeast 183 211 7,000 -60 Level Minneapolis Center
09:11PM 44.7000 -89.6844 157° South 183 211 6,900  Descending Minneapolis Center
09:12PM 44.6558 -89.6553 155° Southeast 183 211 7,000  Climbing Minneapolis Center
09:13PM 44.6061 -89.6236 156° South 184 212 7,000  Level Minneapolis Center
09:14PM 44.5564 -89.5922 156° South 185 213 7,000  Level Minneapolis Center
09:15PM 44.5081 -89.5603 155° Southeast 184 212 7,000  Level Minneapolis Center
09:16PM 44.4597 -89.5433 166° South 183 211 7,100 -60 Climbing Minneapolis Center
09:17PM 44.4119 -89.5025 149° Southeast 192 221 6,900 -120 Descending Minneapolis Center
09:18PM 44.3672 -89.4703 153° Southeast 191 220 6,900  Level Minneapolis Center
09:19PM 44.3183 -89.4392 156° South 189 217 7,000  Climbing Minneapolis Center
09:20PM 44.2683 -89.4081 156° South 188 216 7,000  Level Minneapolis Center
09:22PM 44.2206 -89.3769 155° Southeast 187 215 7,000  Level Minneapolis Center
09:23PM 44.1708 -89.3456 156° South 186 214 7,000  Level Minneapolis Center
09:24PM 44.1222 -89.3156 156° South 186 214 7,000  Level Minneapolis Center
09:25PM 44.0736 -89.2850 156° South 185 213 7,000  Level Minneapolis Center
09:26PM 44.0292 -89.2575 156° South 184 212 7,000  Level Minneapolis Center
09:27PM 43.9814 -89.2261 155° Southeast 183 211 7,100  Climbing Minneapolis Center
09:28PM 43.9333 -89.1953 155° Southeast 182 209 7,100  Level Minneapolis Center
09:29PM 43.8850 -89.1653 156° South 183 211 7,100  Level Minneapolis Center
09:30PM 43.8367 -89.1364 157° South 182 209 7,100 -120 Level Minneapolis Center
09:31PM 43.7881 -89.1047 155° Southeast 183 211 6,900 -300 Descending Minneapolis Center
09:32PM 43.7400 -89.0739 155° Southeast 188 216 6,500 -480 Descending Minneapolis Center
09:33PM 43.6894 -89.0433 156° South 193 222 6,000 -480 Descending Minneapolis Center
09:34PM 43.6394 -89.0119 156° South 194 223 5,600 -480 Descending Minneapolis Center
09:35PM 43.5883 -88.9808 156° South 195 224 5,000 -480 Descending Chicago Center
09:36PM 43.5367 -88.9492 156° South 199 229 4,600 -540 Descending Chicago Center
09:37PM 43.4744 -88.9108 156° South 201 231 4,000 -300 Descending Chicago Center
09:38PM 43.4233 -88.8789 156° South 202 232 4,000  Level Chicago Center
09:39PM 43.3750 -88.8500 157° South 199 229 4,000  Level Chicago Center
09:40PM 43.3247 -88.8178 155° Southeast 195 224 4,100 60 Climbing Chicago Center